sensor_id;sensor_type;location;lat;lon;timestamp;P1;durP1;ratioP1;P2;durP2;ratioP2
55879;SDS011;41802;51.564;-1.838;2022-07-12T00:00:23;14.27;;;12.77;;
55879;SDS011;41802;51.564;-1.838;2022-07-12T00:02:50;15.57;;;13.98;;
55879;SDS011;41802;51.564;-1.838;2022-07-12T00:05:16;15.95;;;12.93;;
55879;SDS011;41802;51.564;-1.838;2022-07-12T00:07:43;17.83;;;14.10;;
55879;SDS011;41802;51.564;-1.838;2022-07-12T00:10:09;14.93;;;13.35;;
55879;SDS011;41802;51.564;-1.838;2022-07-12T00:12:36;17.05;;;15.27;;
55879;SDS011;41802;51.564;-1.838;2022-07-12T00:15:04;18.35;;;16.35;;
55879;SDS011;41802;51.564;-1.838;2022-07-12T00:17:32;21.98;;;17.85;;
55879;SDS011;41802;51.564;-1.838;2022-07-12T00:19:59;23.70;;;21.02;;
55879;SDS011;41802;51.564;-1.838;2022-07-12T00:22:25;27.50;;;22.92;;
55879;SDS011;41802;51.564;-1.838;2022-07-12T00:24:53;31.35;;;24.30;;
55879;SDS011;41802;51.564;-1.838;2022-07-12T00:27:20;30.75;;;25.63;;
55879;SDS011;41802;51.564;-1.838;2022-07-12T00:29:46;35.53;;;28.48;;
55879;SDS011;41802;51.564;-1.838;2022-07-12T00:32:13;28.77;;;25.35;;
55879;SDS011;41802;51.564;-1.838;2022-07-12T00:34:41;28.95;;;23.77;;
55879;SDS011;41802;51.564;-1.838;2022-07-12T00:37:07;32.85;;;27.35;;
55879;SDS011;41802;51.564;-1.838;2022-07-12T00:39:34;37.85;;;30.85;;
55879;SDS011;41802;51.564;-1.838;2022-07-12T00:42:00;39.58;;;32.60;;
55879;SDS011;41802;51.564;-1.838;2022-07-12T00:44:27;37.97;;;33.40;;
55879;SDS011;41802;51.564;-1.838;2022-07-12T00:46:55;41.85;;;34.03;;
55879;SDS011;41802;51.564;-1.838;2022-07-12T00:49:22;34.70;;;30.50;;
55879;SDS011;41802;51.564;-1.838;2022-07-12T00:51:51;33.42;;;29.83;;
55879;SDS011;41802;51.564;-1.838;2022-07-12T00:54:19;38.92;;;30.67;;
55879;SDS011;41802;51.564;-1.838;2022-07-12T00:56:46;36.92;;;30.52;;
55879;SDS011;41802;51.564;-1.838;2022-07-12T00:59:12;37.10;;;31.27;;
55879;SDS011;41802;51.564;-1.838;2022-07-12T01:01:39;38.63;;;32.85;;
55879;SDS011;41802;51.564;-1.838;2022-07-12T01:04:07;37.20;;;32.45;;
55879;SDS011;41802;51.564;-1.838;2022-07-12T01:06:34;38.13;;;32.78;;
55879;SDS011;41802;51.564;-1.838;2022-07-12T01:09:03;33.28;;;28.25;;
55879;SDS011;41802;51.564;-1.838;2022-07-12T01:11:29;36.10;;;28.80;;
55879;SDS011;41802;51.564;-1.838;2022-07-12T01:13:57;38.15;;;30.17;;
55879;SDS011;41802;51.564;-1.838;2022-07-12T01:16:24;45.85;;;35.75;;
55879;SDS011;41802;51.564;-1.838;2022-07-12T01:18:50;46.97;;;37.78;;
55879;SDS011;41802;51.564;-1.838;2022-07-12T01:21:18;51.22;;;43.53;;
55879;SDS011;41802;51.564;-1.838;2022-07-12T01:23:46;61.10;;;51.42;;
55879;SDS011;41802;51.564;-1.838;2022-07-12T01:26:12;61.25;;;52.47;;
55879;SDS011;41802;51.564;-1.838;2022-07-12T01:28:39;66.20;;;55.15;;
55879;SDS011;41802;51.564;-1.838;2022-07-12T01:31:06;66.72;;;56.85;;
55879;SDS011;41802;51.564;-1.838;2022-07-12T01:33:34;60.03;;;50.45;;
55879;SDS011;41802;51.564;-1.838;2022-07-12T01:36:01;43.20;;;34.60;;
55879;SDS011;41802;51.564;-1.838;2022-07-12T01:38:28;39.72;;;33.08;;
55879;SDS011;41802;51.564;-1.838;2022-07-12T01:40:56;37.70;;;31.85;;
55879;SDS011;41802;51.564;-1.838;2022-07-12T01:43:23;38.80;;;31.58;;
55879;SDS011;41802;51.564;-1.838;2022-07-12T01:45:49;36.53;;;31.35;;
55879;SDS011;41802;51.564;-1.838;2022-07-12T01:48:16;36.53;;;31.58;;
55879;SDS011;41802;51.564;-1.838;2022-07-12T01:50:43;41.15;;;33.33;;
55879;SDS011;41802;51.564;-1.838;2022-07-12T01:53:09;43.17;;;36.40;;
55879;SDS011;41802;51.564;-1.838;2022-07-12T01:55:37;57.47;;;50.28;;
55879;SDS011;41802;51.564;-1.838;2022-07-12T01:58:04;66.50;;;55.97;;
55879;SDS011;41802;51.564;-1.838;2022-07-12T02:00:32;72.28;;;61.17;;
55879;SDS011;41802;51.564;-1.838;2022-07-12T02:02:58;95.40;;;79.32;;
55879;SDS011;41802;51.564;-1.838;2022-07-12T02:05:25;103.25;;;82.20;;
55879;SDS011;41802;51.564;-1.838;2022-07-12T02:07:51;122.60;;;98.85;;
55879;SDS011;41802;51.564;-1.838;2022-07-12T02:10:19;138.52;;;109.03;;
55879;SDS011;41802;51.564;-1.838;2022-07-12T02:12:46;146.10;;;113.10;;
55879;SDS011;41802;51.564;-1.838;2022-07-12T02:15:15;150.05;;;116.57;;
55879;SDS011;41802;51.564;-1.838;2022-07-12T02:17:41;154.48;;;117.97;;
55879;SDS011;41802;51.564;-1.838;2022-07-12T02:20:09;156.27;;;121.68;;
55879;SDS011;41802;51.564;-1.838;2022-07-12T02:22:36;160.88;;;122.78;;
55879;SDS011;41802;51.564;-1.838;2022-07-12T02:25:03;159.43;;;125.20;;
55879;SDS011;41802;51.564;-1.838;2022-07-12T02:27:30;161.82;;;124.88;;
55879;SDS011;41802;51.564;-1.838;2022-07-12T02:30:00;168.98;;;128.80;;
55879;SDS011;41802;51.564;-1.838;2022-07-12T02:32:28;173.25;;;131.77;;
55879;SDS011;41802;51.564;-1.838;2022-07-12T02:34:55;178.77;;;134.90;;
55879;SDS011;41802;51.564;-1.838;2022-07-12T02:37:21;226.48;;;174.05;;
55879;SDS011;41802;51.564;-1.838;2022-07-12T02:39:50;233.77;;;180.70;;
55879;SDS011;41802;51.564;-1.838;2022-07-12T02:42:17;263.35;;;196.43;;
55879;SDS011;41802;51.564;-1.838;2022-07-12T02:44:43;254.95;;;200.40;;
55879;SDS011;41802;51.564;-1.838;2022-07-12T02:47:10;264.67;;;204.85;;
55879;SDS011;41802;51.564;-1.838;2022-07-12T02:49:38;269.55;;;208.63;;
55879;SDS011;41802;51.564;-1.838;2022-07-12T02:52:04;264.70;;;209.00;;
55879;SDS011;41802;51.564;-1.838;2022-07-12T02:54:31;242.93;;;184.43;;
55879;SDS011;41802;51.564;-1.838;2022-07-12T02:56:58;194.88;;;151.30;;
55879;SDS011;41802;51.564;-1.838;2022-07-12T02:59:26;218.95;;;170.25;;
55879;SDS011;41802;51.564;-1.838;2022-07-12T03:01:52;202.90;;;152.50;;
55879;SDS011;41802;51.564;-1.838;2022-07-12T03:04:19;183.98;;;141.63;;
55879;SDS011;41802;51.564;-1.838;2022-07-12T03:06:47;191.93;;;146.02;;
55879;SDS011;41802;51.564;-1.838;2022-07-12T03:09:13;177.68;;;135.02;;
55879;SDS011;41802;51.564;-1.838;2022-07-12T03:11:40;164.40;;;121.45;;
55879;SDS011;41802;51.564;-1.838;2022-07-12T03:14:06;152.02;;;119.00;;
55879;SDS011;41802;51.564;-1.838;2022-07-12T03:16:33;154.10;;;116.85;;
55879;SDS011;41802;51.564;-1.838;2022-07-12T03:18:59;161.05;;;117.57;;
55879;SDS011;41802;51.564;-1.838;2022-07-12T03:21:26;157.10;;;120.85;;
55879;SDS011;41802;51.564;-1.838;2022-07-12T03:23:54;175.48;;;125.85;;
55879;SDS011;41802;51.564;-1.838;2022-07-12T03:26:20;182.43;;;131.65;;
55879;SDS011;41802;51.564;-1.838;2022-07-12T03:28:48;183.60;;;132.15;;
55879;SDS011;41802;51.564;-1.838;2022-07-12T03:31:15;167.35;;;126.07;;
55879;SDS011;41802;51.564;-1.838;2022-07-12T03:33:41;174.48;;;124.55;;
55879;SDS011;41802;51.564;-1.838;2022-07-12T03:36:08;170.98;;;124.22;;
55879;SDS011;41802;51.564;-1.838;2022-07-12T03:38:35;170.15;;;122.97;;
55879;SDS011;41802;51.564;-1.838;2022-07-12T03:41:03;164.55;;;119.70;;
55879;SDS011;41802;51.564;-1.838;2022-07-12T03:43:30;160.13;;;117.10;;
55879;SDS011;41802;51.564;-1.838;2022-07-12T03:45:57;166.02;;;119.07;;
55879;SDS011;41802;51.564;-1.838;2022-07-12T03:48:23;163.80;;;114.53;;
55879;SDS011;41802;51.564;-1.838;2022-07-12T03:50:50;163.82;;;117.68;;
55879;SDS011;41802;51.564;-1.838;2022-07-12T03:53:16;159.95;;;114.95;;
55879;SDS011;41802;51.564;-1.838;2022-07-12T03:55:43;149.77;;;110.25;;
55879;SDS011;41802;51.564;-1.838;2022-07-12T03:58:11;162.90;;;114.43;;
55879;SDS011;41802;51.564;-1.838;2022-07-12T04:00:37;160.77;;;113.72;;
55879;SDS011;41802;51.564;-1.838;2022-07-12T04:03:05;172.98;;;120.85;;
55879;SDS011;41802;51.564;-1.838;2022-07-12T04:05:32;173.63;;;123.32;;
55879;SDS011;41802;51.564;-1.838;2022-07-12T04:07:58;178.02;;;127.18;;
55879;SDS011;41802;51.564;-1.838;2022-07-12T04:10:27;190.60;;;133.33;;
55879;SDS011;41802;51.564;-1.838;2022-07-12T04:12:53;198.80;;;143.00;;
55879;SDS011;41802;51.564;-1.838;2022-07-12T04:15:21;199.05;;;141.43;;
55879;SDS011;41802;51.564;-1.838;2022-07-12T04:17:48;193.07;;;139.23;;
55879;SDS011;41802;51.564;-1.838;2022-07-12T04:20:14;171.93;;;123.72;;
55879;SDS011;41802;51.564;-1.838;2022-07-12T04:22:41;165.38;;;119.18;;
55879;SDS011;41802;51.564;-1.838;2022-07-12T04:25:08;163.32;;;118.25;;
55879;SDS011;41802;51.564;-1.838;2022-07-12T04:27:34;165.35;;;119.68;;
55879;SDS011;41802;51.564;-1.838;2022-07-12T04:30:02;171.45;;;119.72;;
55879;SDS011;41802;51.564;-1.838;2022-07-12T04:32:30;168.85;;;120.35;;
55879;SDS011;41802;51.564;-1.838;2022-07-12T04:34:56;171.13;;;125.25;;
55879;SDS011;41802;51.564;-1.838;2022-07-12T04:37:23;164.18;;;121.30;;
55879;SDS011;41802;51.564;-1.838;2022-07-12T04:39:49;167.55;;;119.47;;
55879;SDS011;41802;51.564;-1.838;2022-07-12T04:42:16;162.05;;;117.03;;
55879;SDS011;41802;51.564;-1.838;2022-07-12T04:44:42;155.55;;;112.78;;
55879;SDS011;41802;51.564;-1.838;2022-07-12T04:47:09;153.25;;;110.55;;
55879;SDS011;41802;51.564;-1.838;2022-07-12T04:49:37;159.70;;;112.10;;
55879;SDS011;41802;51.564;-1.838;2022-07-12T04:52:03;150.73;;;104.63;;
55879;SDS011;41802;51.564;-1.838;2022-07-12T04:54:30;143.30;;;100.10;;
55879;SDS011;41802;51.564;-1.838;2022-07-12T04:56:57;124.85;;;92.05;;
55879;SDS011;41802;51.564;-1.838;2022-07-12T04:59:23;129.80;;;91.25;;
55879;SDS011;41802;51.564;-1.838;2022-07-12T05:01:50;127.93;;;86.25;;
55879;SDS011;41802;51.564;-1.838;2022-07-12T05:04:17;102.00;;;76.22;;
55879;SDS011;41802;51.564;-1.838;2022-07-12T05:06:45;68.18;;;52.03;;
55879;SDS011;41802;51.564;-1.838;2022-07-12T05:09:11;63.10;;;49.15;;
55879;SDS011;41802;51.564;-1.838;2022-07-12T05:11:38;73.10;;;53.13;;
55879;SDS011;41802;51.564;-1.838;2022-07-12T05:14:05;67.25;;;48.75;;
55879;SDS011;41802;51.564;-1.838;2022-07-12T05:16:31;76.63;;;55.00;;
55879;SDS011;41802;51.564;-1.838;2022-07-12T05:18:57;74.35;;;54.40;;
55879;SDS011;41802;51.564;-1.838;2022-07-12T05:21:26;69.72;;;52.03;;
55879;SDS011;41802;51.564;-1.838;2022-07-12T05:23:54;60.00;;;45.13;;
55879;SDS011;41802;51.564;-1.838;2022-07-12T05:26:21;59.33;;;44.83;;
55879;SDS011;41802;51.564;-1.838;2022-07-12T05:28:47;64.00;;;45.15;;
55879;SDS011;41802;51.564;-1.838;2022-07-12T05:31:14;59.45;;;44.78;;
55879;SDS011;41802;51.564;-1.838;2022-07-12T05:33:40;56.53;;;41.03;;
55879;SDS011;41802;51.564;-1.838;2022-07-12T05:36:07;60.83;;;44.20;;
55879;SDS011;41802;51.564;-1.838;2022-07-12T05:38:33;82.47;;;59.80;;
55879;SDS011;41802;51.564;-1.838;2022-07-12T05:41:01;102.30;;;71.40;;
55879;SDS011;41802;51.564;-1.838;2022-07-12T05:43:28;111.80;;;82.30;;
55879;SDS011;41802;51.564;-1.838;2022-07-12T05:45:54;118.47;;;85.45;;
55879;SDS011;41802;51.564;-1.838;2022-07-12T05:48:22;117.75;;;81.22;;
55879;SDS011;41802;51.564;-1.838;2022-07-12T05:50:48;112.40;;;83.97;;
55879;SDS011;41802;51.564;-1.838;2022-07-12T05:53:15;107.28;;;77.30;;
55879;SDS011;41802;51.564;-1.838;2022-07-12T05:55:50;95.00;;;69.95;;
55879;SDS011;41802;51.564;-1.838;2022-07-12T05:58:18;94.75;;;68.38;;
55879;SDS011;41802;51.564;-1.838;2022-07-12T06:00:45;101.72;;;70.00;;
55879;SDS011;41802;51.564;-1.838;2022-07-12T06:03:12;86.97;;;64.95;;
55879;SDS011;41802;51.564;-1.838;2022-07-12T06:05:39;75.80;;;57.03;;
55879;SDS011;41802;51.564;-1.838;2022-07-12T06:08:06;72.88;;;55.65;;
55879;SDS011;41802;51.564;-1.838;2022-07-12T06:10:34;67.60;;;49.15;;
55879;SDS011;41802;51.564;-1.838;2022-07-12T06:13:01;67.85;;;48.17;;
55879;SDS011;41802;51.564;-1.838;2022-07-12T06:15:29;59.75;;;42.63;;
55879;SDS011;41802;51.564;-1.838;2022-07-12T06:17:56;54.28;;;39.63;;
55879;SDS011;41802;51.564;-1.838;2022-07-12T06:20:22;52.15;;;39.80;;
55879;SDS011;41802;51.564;-1.838;2022-07-12T06:22:49;50.30;;;39.92;;
55879;SDS011;41802;51.564;-1.838;2022-07-12T06:25:16;55.33;;;40.55;;
55879;SDS011;41802;51.564;-1.838;2022-07-12T06:27:42;54.33;;;41.03;;
55879;SDS011;41802;51.564;-1.838;2022-07-12T06:30:09;54.53;;;39.28;;
55879;SDS011;41802;51.564;-1.838;2022-07-12T06:32:37;51.40;;;40.03;;
55879;SDS011;41802;51.564;-1.838;2022-07-12T06:35:04;52.83;;;39.05;;
55879;SDS011;41802;51.564;-1.838;2022-07-12T06:37:31;53.50;;;39.72;;
55879;SDS011;41802;51.564;-1.838;2022-07-12T06:39:57;56.92;;;41.75;;
55879;SDS011;41802;51.564;-1.838;2022-07-12T06:42:24;55.60;;;41.53;;
55879;SDS011;41802;51.564;-1.838;2022-07-12T06:44:51;56.50;;;42.47;;
55879;SDS011;41802;51.564;-1.838;2022-07-12T06:47:17;57.13;;;43.00;;
55879;SDS011;41802;51.564;-1.838;2022-07-12T06:49:45;58.75;;;43.47;;
55879;SDS011;41802;51.564;-1.838;2022-07-12T06:52:12;61.00;;;45.42;;
55879;SDS011;41802;51.564;-1.838;2022-07-12T06:54:38;64.07;;;46.53;;
55879;SDS011;41802;51.564;-1.838;2022-07-12T06:57:05;65.82;;;47.72;;
55879;SDS011;41802;51.564;-1.838;2022-07-12T06:59:31;68.20;;;51.53;;
55879;SDS011;41802;51.564;-1.838;2022-07-12T07:01:58;65.70;;;49.97;;
55879;SDS011;41802;51.564;-1.838;2022-07-12T07:04:25;68.38;;;48.40;;
55879;SDS011;41802;51.564;-1.838;2022-07-12T07:06:53;54.40;;;39.63;;
55879;SDS011;41802;51.564;-1.838;2022-07-12T07:09:19;54.90;;;41.63;;
55879;SDS011;41802;51.564;-1.838;2022-07-12T07:11:46;59.88;;;42.58;;
55879;SDS011;41802;51.564;-1.838;2022-07-12T07:14:12;57.03;;;41.63;;
55879;SDS011;41802;51.564;-1.838;2022-07-12T07:16:39;55.38;;;41.33;;
55879;SDS011;41802;51.564;-1.838;2022-07-12T07:19:05;54.28;;;41.55;;
55879;SDS011;41802;51.564;-1.838;2022-07-12T07:21:32;53.17;;;41.92;;
55879;SDS011;41802;51.564;-1.838;2022-07-12T07:24:00;51.08;;;39.33;;
55879;SDS011;41802;51.564;-1.838;2022-07-12T07:26:26;54.63;;;40.78;;
55879;SDS011;41802;51.564;-1.838;2022-07-12T07:28:53;45.80;;;36.22;;
55879;SDS011;41802;51.564;-1.838;2022-07-12T07:31:37;47.70;;;36.08;;
55879;SDS011;41802;51.564;-1.838;2022-07-12T07:34:05;40.42;;;27.90;;
55879;SDS011;41802;51.564;-1.838;2022-07-12T07:36:32;36.38;;;27.90;;
55879;SDS011;41802;51.564;-1.838;2022-07-12T07:39:00;27.50;;;19.38;;
55879;SDS011;41802;51.564;-1.838;2022-07-12T07:41:27;30.60;;;21.92;;
55879;SDS011;41802;51.564;-1.838;2022-07-12T07:43:53;24.55;;;19.58;;
55879;SDS011;41802;51.564;-1.838;2022-07-12T07:46:20;28.23;;;18.83;;
55879;SDS011;41802;51.564;-1.838;2022-07-12T07:48:47;24.90;;;17.67;;
55879;SDS011;41802;51.564;-1.838;2022-07-12T07:51:13;19.90;;;15.27;;
55879;SDS011;41802;51.564;-1.838;2022-07-12T07:53:40;20.70;;;13.90;;
55879;SDS011;41802;51.564;-1.838;2022-07-12T07:56:08;17.58;;;12.98;;
55879;SDS011;41802;51.564;-1.838;2022-07-12T07:58:34;14.43;;;10.40;;
55879;SDS011;41802;51.564;-1.838;2022-07-12T08:01:01;12.27;;;10.07;;
55879;SDS011;41802;51.564;-1.838;2022-07-12T08:03:27;10.80;;;9.25;;
55879;SDS011;41802;51.564;-1.838;2022-07-12T08:05:53;13.98;;;9.82;;
55879;SDS011;41802;51.564;-1.838;2022-07-12T08:08:22;12.70;;;9.85;;
55879;SDS011;41802;51.564;-1.838;2022-07-12T08:10:49;14.95;;;11.38;;
55879;SDS011;41802;51.564;-1.838;2022-07-12T08:13:17;14.57;;;11.50;;
55879;SDS011;41802;51.564;-1.838;2022-07-12T08:15:43;17.95;;;12.07;;
55879;SDS011;41802;51.564;-1.838;2022-07-12T08:18:10;15.02;;;11.70;;
55879;SDS011;41802;51.564;-1.838;2022-07-12T08:20:37;15.70;;;11.25;;
55879;SDS011;41802;51.564;-1.838;2022-07-12T08:23:03;14.88;;;10.43;;
55879;SDS011;41802;51.564;-1.838;2022-07-12T08:25:30;13.10;;;10.32;;
55879;SDS011;41802;51.564;-1.838;2022-07-12T08:27:56;12.38;;;8.35;;
55879;SDS011;41802;51.564;-1.838;2022-07-12T08:30:24;12.10;;;8.32;;
55879;SDS011;41802;51.564;-1.838;2022-07-12T08:32:51;10.98;;;7.90;;
55879;SDS011;41802;51.564;-1.838;2022-07-12T08:35:18;10.05;;;6.28;;
55879;SDS011;41802;51.564;-1.838;2022-07-12T08:37:44;8.30;;;5.70;;
55879;SDS011;41802;51.564;-1.838;2022-07-12T08:40:11;5.82;;;5.22;;
55879;SDS011;41802;51.564;-1.838;2022-07-12T08:42:40;8.48;;;5.97;;
55879;SDS011;41802;51.564;-1.838;2022-07-12T08:45:07;6.95;;;4.80;;
55879;SDS011;41802;51.564;-1.838;2022-07-12T08:47:35;7.07;;;4.15;;
55879;SDS011;41802;51.564;-1.838;2022-07-12T08:50:12;3.92;;;2.80;;
55879;SDS011;41802;51.564;-1.838;2022-07-12T08:52:38;3.55;;;2.90;;
55879;SDS011;41802;51.564;-1.838;2022-07-12T08:55:15;5.28;;;3.00;;
55879;SDS011;41802;51.564;-1.838;2022-07-12T08:57:42;4.50;;;2.97;;
55879;SDS011;41802;51.564;-1.838;2022-07-12T09:00:09;9.18;;;2.85;;
55879;SDS011;41802;51.564;-1.838;2022-07-12T09:02:44;5.03;;;3.47;;
55879;SDS011;41802;51.564;-1.838;2022-07-12T09:05:11;8.43;;;5.15;;
55879;SDS011;41802;51.564;-1.838;2022-07-12T09:07:38;12.40;;;5.10;;
55879;SDS011;41802;51.564;-1.838;2022-07-12T09:10:04;8.80;;;4.88;;
55879;SDS011;41802;51.564;-1.838;2022-07-12T09:12:32;8.05;;;6.13;;
55879;SDS011;41802;51.564;-1.838;2022-07-12T09:15:09;10.27;;;8.18;;
55879;SDS011;41802;51.564;-1.838;2022-07-12T09:17:36;17.63;;;9.00;;
55879;SDS011;41802;51.564;-1.838;2022-07-12T09:20:05;11.73;;;8.20;;
55879;SDS011;41802;51.564;-1.838;2022-07-12T09:25:02;13.82;;;10.80;;
55879;SDS011;41802;51.564;-1.838;2022-07-12T09:27:34;18.40;;;11.77;;
55879;SDS011;41802;51.564;-1.838;2022-07-12T09:30:00;16.55;;;11.23;;
55879;SDS011;41802;51.564;-1.838;2022-07-12T09:32:29;16.60;;;11.35;;
55879;SDS011;41802;51.564;-1.838;2022-07-12T09:35:14;14.88;;;10.07;;
55879;SDS011;41802;51.564;-1.838;2022-07-12T09:38:07;11.38;;;10.15;;
55879;SDS011;41802;51.564;-1.838;2022-07-12T09:40:34;11.10;;;9.25;;
55879;SDS011;41802;51.564;-1.838;2022-07-12T09:43:01;13.20;;;11.00;;
55879;SDS011;41802;51.564;-1.838;2022-07-12T09:45:30;11.75;;;9.00;;
55879;SDS011;41802;51.564;-1.838;2022-07-12T09:47:57;12.27;;;9.77;;
55879;SDS011;41802;51.564;-1.838;2022-07-12T09:50:25;12.20;;;9.20;;
55879;SDS011;41802;51.564;-1.838;2022-07-12T09:52:52;11.80;;;9.20;;
55879;SDS011;41802;51.564;-1.838;2022-07-12T09:55:20;13.48;;;10.10;;
55879;SDS011;41802;51.564;-1.838;2022-07-12T09:57:50;13.02;;;9.95;;
55879;SDS011;41802;51.564;-1.838;2022-07-12T10:00:22;14.70;;;11.50;;
55879;SDS011;41802;51.564;-1.838;2022-07-12T10:02:49;15.07;;;10.57;;
55879;SDS011;41802;51.564;-1.838;2022-07-12T10:05:16;12.35;;;9.82;;
55879;SDS011;41802;51.564;-1.838;2022-07-12T10:07:45;14.23;;;8.60;;
55879;SDS011;41802;51.564;-1.838;2022-07-12T10:10:11;9.23;;;8.23;;
55879;SDS011;41802;51.564;-1.838;2022-07-12T10:12:39;11.27;;;8.20;;
55879;SDS011;41802;51.564;-1.838;2022-07-12T10:15:07;8.48;;;6.97;;
55879;SDS011;41802;51.564;-1.838;2022-07-12T10:17:35;8.38;;;6.80;;
55879;SDS011;41802;51.564;-1.838;2022-07-12T10:20:15;9.50;;;6.47;;
55879;SDS011;41802;51.564;-1.838;2022-07-12T10:22:42;10.38;;;6.90;;
55879;SDS011;41802;51.564;-1.838;2022-07-12T10:27:51;8.50;;;6.68;;
55879;SDS011;41802;51.564;-1.838;2022-07-12T10:30:18;8.27;;;6.13;;
55879;SDS011;41802;51.564;-1.838;2022-07-12T10:32:45;6.72;;;6.10;;
55879;SDS011;41802;51.564;-1.838;2022-07-12T10:35:14;6.20;;;5.38;;
55879;SDS011;41802;51.564;-1.838;2022-07-12T10:37:41;6.03;;;4.72;;
55879;SDS011;41802;51.564;-1.838;2022-07-12T10:40:24;6.13;;;4.80;;
55879;SDS011;41802;51.564;-1.838;2022-07-12T10:45:39;5.72;;;4.95;;
55879;SDS011;41802;51.564;-1.838;2022-07-12T10:48:06;6.50;;;4.38;;
55879;SDS011;41802;51.564;-1.838;2022-07-12T10:50:50;7.03;;;4.10;;
55879;SDS011;41802;51.564;-1.838;2022-07-12T10:53:20;5.05;;;3.90;;
55879;SDS011;41802;51.564;-1.838;2022-07-12T10:58:29;5.82;;;4.68;;
55879;SDS011;41802;51.564;-1.838;2022-07-12T11:03:25;5.50;;;3.10;;
55879;SDS011;41802;51.564;-1.838;2022-07-12T11:05:59;10.77;;;4.63;;
55879;SDS011;41802;51.564;-1.838;2022-07-12T11:08:25;5.50;;;4.03;;
55879;SDS011;41802;51.564;-1.838;2022-07-12T11:10:55;7.70;;;4.47;;
55879;SDS011;41802;51.564;-1.838;2022-07-12T11:13:23;15.13;;;4.70;;
55879;SDS011;41802;51.564;-1.838;2022-07-12T11:15:57;5.07;;;3.50;;
55879;SDS011;41802;51.564;-1.838;2022-07-12T11:18:28;5.82;;;4.75;;
55879;SDS011;41802;51.564;-1.838;2022-07-12T11:20:55;3.63;;;3.15;;
55879;SDS011;41802;51.564;-1.838;2022-07-12T11:23:22;7.97;;;3.88;;
55879;SDS011;41802;51.564;-1.838;2022-07-12T11:25:50;4.50;;;2.40;;
55879;SDS011;41802;51.564;-1.838;2022-07-12T11:28:17;5.10;;;3.53;;
55879;SDS011;41802;51.564;-1.838;2022-07-12T11:30:47;3.83;;;2.55;;
55879;SDS011;41802;51.564;-1.838;2022-07-12T11:33:14;3.83;;;2.72;;
55879;SDS011;41802;51.564;-1.838;2022-07-12T11:35:44;4.15;;;3.40;;
55879;SDS011;41802;51.564;-1.838;2022-07-12T11:38:12;4.30;;;3.30;;
55879;SDS011;41802;51.564;-1.838;2022-07-12T11:40:40;3.75;;;3.42;;
55879;SDS011;41802;51.564;-1.838;2022-07-12T11:43:06;3.33;;;3.00;;
55879;SDS011;41802;51.564;-1.838;2022-07-12T11:45:33;6.07;;;3.30;;
55879;SDS011;41802;51.564;-1.838;2022-07-12T11:48:01;5.15;;;3.35;;
55879;SDS011;41802;51.564;-1.838;2022-07-12T11:50:28;3.22;;;2.92;;
55879;SDS011;41802;51.564;-1.838;2022-07-12T11:52:56;3.88;;;3.08;;
55879;SDS011;41802;51.564;-1.838;2022-07-12T11:55:23;5.47;;;3.20;;
55879;SDS011;41802;51.564;-1.838;2022-07-12T11:57:49;4.82;;;3.15;;
55879;SDS011;41802;51.564;-1.838;2022-07-12T12:00:16;3.88;;;3.03;;
55879;SDS011;41802;51.564;-1.838;2022-07-12T12:02:43;3.75;;;3.30;;
55879;SDS011;41802;51.564;-1.838;2022-07-12T12:05:09;5.80;;;3.53;;
55879;SDS011;41802;51.564;-1.838;2022-07-12T12:07:36;5.63;;;4.55;;
55879;SDS011;41802;51.564;-1.838;2022-07-12T12:10:05;4.70;;;4.30;;
55879;SDS011;41802;51.564;-1.838;2022-07-12T12:12:35;6.82;;;5.32;;
55879;SDS011;41802;51.564;-1.838;2022-07-12T12:15:03;5.47;;;4.38;;
55879;SDS011;41802;51.564;-1.838;2022-07-12T12:17:32;5.32;;;4.47;;
55879;SDS011;41802;51.564;-1.838;2022-07-12T12:20:07;7.30;;;4.38;;
55879;SDS011;41802;51.564;-1.838;2022-07-12T12:22:34;12.80;;;5.28;;
55879;SDS011;41802;51.564;-1.838;2022-07-12T12:25:02;5.43;;;4.55;;
55879;SDS011;41802;51.564;-1.838;2022-07-12T12:27:30;5.60;;;4.93;;
55879;SDS011;41802;51.564;-1.838;2022-07-12T12:29:58;6.50;;;5.47;;
55879;SDS011;41802;51.564;-1.838;2022-07-12T12:32:24;6.97;;;5.07;;
55879;SDS011;41802;51.564;-1.838;2022-07-12T12:35:07;5.13;;;4.63;;
55879;SDS011;41802;51.564;-1.838;2022-07-12T12:37:33;7.93;;;4.70;;
55879;SDS011;41802;51.564;-1.838;2022-07-12T12:40:00;5.28;;;4.65;;
55879;SDS011;41802;51.564;-1.838;2022-07-12T12:42:27;4.07;;;3.70;;
55879;SDS011;41802;51.564;-1.838;2022-07-12T12:44:55;4.32;;;3.92;;
55879;SDS011;41802;51.564;-1.838;2022-07-12T12:47:22;4.70;;;3.75;;
55879;SDS011;41802;51.564;-1.838;2022-07-12T12:49:59;4.20;;;3.80;;
55879;SDS011;41802;51.564;-1.838;2022-07-12T12:52:26;6.32;;;3.63;;
55879;SDS011;41802;51.564;-1.838;2022-07-12T12:54:55;4.03;;;3.67;;
55879;SDS011;41802;51.564;-1.838;2022-07-12T12:57:22;3.50;;;3.20;;
55879;SDS011;41802;51.564;-1.838;2022-07-12T12:59:50;4.32;;;3.72;;
55879;SDS011;41802;51.564;-1.838;2022-07-12T13:02:18;4.85;;;3.55;;
55879;SDS011;41802;51.564;-1.838;2022-07-12T13:04:46;4.40;;;3.72;;
55879;SDS011;41802;51.564;-1.838;2022-07-12T13:07:13;4.05;;;3.65;;
55879;SDS011;41802;51.564;-1.838;2022-07-12T13:09:39;4.60;;;4.20;;
55879;SDS011;41802;51.564;-1.838;2022-07-12T13:12:06;4.40;;;3.75;;
55879;SDS011;41802;51.564;-1.838;2022-07-12T13:14:33;4.22;;;3.80;;
55879;SDS011;41802;51.564;-1.838;2022-07-12T13:17:00;4.32;;;3.75;;
55879;SDS011;41802;51.564;-1.838;2022-07-12T13:19:27;4.30;;;3.90;;
55879;SDS011;41802;51.564;-1.838;2022-07-12T13:21:54;3.50;;;3.20;;
55879;SDS011;41802;51.564;-1.838;2022-07-12T13:24:20;5.90;;;4.60;;
55879;SDS011;41802;51.564;-1.838;2022-07-12T13:26:47;6.10;;;4.05;;
55879;SDS011;41802;51.564;-1.838;2022-07-12T13:29:13;5.72;;;4.03;;
55879;SDS011;41802;51.564;-1.838;2022-07-12T13:31:40;5.53;;;3.75;;
55879;SDS011;41802;51.564;-1.838;2022-07-12T13:34:07;6.78;;;3.83;;
55879;SDS011;41802;51.564;-1.838;2022-07-12T13:36:34;4.28;;;3.88;;
55879;SDS011;41802;51.564;-1.838;2022-07-12T13:39:01;5.05;;;3.83;;
55879;SDS011;41802;51.564;-1.838;2022-07-12T13:41:48;3.92;;;3.63;;
55879;SDS011;41802;51.564;-1.838;2022-07-12T13:44:15;3.17;;;2.67;;
55879;SDS011;41802;51.564;-1.838;2022-07-12T13:46:41;2.70;;;2.50;;
55879;SDS011;41802;51.564;-1.838;2022-07-12T13:49:08;2.70;;;2.40;;
55879;SDS011;41802;51.564;-1.838;2022-07-12T13:51:36;4.50;;;2.22;;
55879;SDS011;41802;51.564;-1.838;2022-07-12T13:54:03;2.28;;;1.70;;
55879;SDS011;41802;51.564;-1.838;2022-07-12T13:56:29;3.60;;;1.60;;
55879;SDS011;41802;51.564;-1.838;2022-07-12T13:58:56;3.22;;;2.17;;
55879;SDS011;41802;51.564;-1.838;2022-07-12T14:01:22;2.40;;;1.83;;
55879;SDS011;41802;51.564;-1.838;2022-07-12T14:03:49;1.55;;;1.30;;
55879;SDS011;41802;51.564;-1.838;2022-07-12T14:06:15;4.05;;;1.30;;
55879;SDS011;41802;51.564;-1.838;2022-07-12T14:08:43;1.70;;;1.40;;
55879;SDS011;41802;51.564;-1.838;2022-07-12T14:11:10;2.00;;;1.80;;
55879;SDS011;41802;51.564;-1.838;2022-07-12T14:13:37;1.45;;;1.35;;
55879;SDS011;41802;51.564;-1.838;2022-07-12T14:16:04;2.78;;;2.55;;
55879;SDS011;41802;51.564;-1.838;2022-07-12T14:18:31;1.88;;;1.65;;
55879;SDS011;41802;51.564;-1.838;2022-07-12T14:20:57;1.00;;;0.90;;
55879;SDS011;41802;51.564;-1.838;2022-07-12T14:23:24;1.80;;;1.70;;
55879;SDS011;41802;51.564;-1.838;2022-07-12T14:25:53;3.75;;;1.65;;
55879;SDS011;41802;51.564;-1.838;2022-07-12T14:28:19;1.42;;;1.10;;